Time;durP1;ratioP1;P1;durP2;ratioP2;P2;SDS_P1;SDS_P2;PMS_P1;PMS_P2;Temp;Humidity;BMP_temperature;BMP_pressure;BME280_temperature;BME280_humidity;BME280_pressure;Samples;Min_cycle;Max_cycle;Signal;HPM_P1;HPM_P2
2022/07/30 00:00:53;;;;;;;6.17;4.50;;;;;;;18.44;68.91;98751.59;4998789;28;20285;-60
2022/07/30 00:03:19;;;;;;;6.53;4.33;;;;;;;18.42;68.90;98751.75;5000923;28;20223;-60
2022/07/30 00:05:46;;;;;;;10.27;4.53;;;;;;;18.36;68.66;98759.69;5001883;28;20226;-59
2022/07/30 00:08:13;;;;;;;6.27;4.40;;;;;;;18.31;69.25;98762.09;5003730;28;20238;-59
2022/07/30 00:10:40;;;;;;;7.17;4.40;;;;;;;18.22;69.27;98758.81;5004868;28;20228;-59
2022/07/30 00:13:07;;;;;;;6.07;3.90;;;;;;;18.18;69.17;98760.22;5001116;28;20241;-59
2022/07/30 00:15:34;;;;;;;7.70;4.27;;;;;;;18.15;69.53;98762.22;5001431;28;20627;-60
2022/07/30 00:18:02;;;;;;;6.60;4.90;;;;;;;18.05;69.54;98760.97;5001127;28;20245;-59
2022/07/30 00:20:29;;;;;;;6.30;4.67;;;;;;;17.94;70.08;98757.84;5001588;28;20221;-59
2022/07/30 00:22:56;;;;;;;8.50;4.57;;;;;;;17.93;71.01;98758.06;5004192;28;20573;-59
2022/07/30 00:25:24;;;;;;;6.53;4.50;;;;;;;17.90;71.47;98755.81;5001508;28;20220;-59
2022/07/30 00:27:50;;;;;;;6.63;4.50;;;;;;;17.80;70.77;98756.13;4999324;28;20224;-58
2022/07/30 00:30:17;;;;;;;7.53;4.37;;;;;;;17.78;70.98;98758.16;4988014;28;20689;-59
2022/07/30 00:32:44;;;;;;;6.67;4.97;;;;;;;17.75;71.30;98754.09;4986036;28;20222;-59
2022/07/30 00:35:12;;;;;;;6.73;4.40;;;;;;;17.69;71.52;98749.59;4999188;28;20305;-59
2022/07/30 00:37:39;;;;;;;5.23;4.37;;;;;;;17.63;70.91;98750.38;5001117;28;20628;-59
2022/07/30 00:40:09;;;;;;;6.13;4.73;;;;;;;17.55;71.44;98748.69;4999824;28;20247;-59
2022/07/30 00:42:40;;;;;;;7.17;4.70;;;;;;;17.62;71.59;98746.09;5001917;28;20295;-59
2022/07/30 00:45:09;;;;;;;7.87;4.80;;;;;;;17.50;71.70;98746.63;5003804;28;20224;-59
2022/07/30 00:47:36;;;;;;;5.60;4.10;;;;;;;17.47;71.60;98746.22;4998581;28;20267;-59
2022/07/30 00:50:03;;;;;;;6.93;4.37;;;;;;;17.45;72.14;98745.59;4987100;28;20307;-59
2022/07/30 00:52:32;;;;;;;7.10;4.03;;;;;;;17.43;71.76;98750.25;5002467;28;20222;-59
2022/07/30 00:54:59;;;;;;;8.03;4.70;;;;;;;17.36;72.39;98751.00;4998792;28;20222;-58
2022/07/30 00:57:27;;;;;;;7.10;5.00;;;;;;;17.29;71.69;98746.69;4982893;28;20227;-58
2022/07/30 00:59:54;;;;;;;5.20;4.50;;;;;;;17.23;72.37;98749.06;5003660;28;20219;-59
2022/07/30 01:02:21;;;;;;;6.40;4.60;;;;;;;17.21;72.70;98755.56;5005209;28;20589;-59
2022/07/30 01:04:48;;;;;;;8.90;5.00;;;;;;;17.21;72.93;98753.72;4996796;28;20208;-59
2022/07/30 01:07:15;;;;;;;5.57;4.70;;;;;;;17.17;73.12;98759.59;5001205;28;20701;-59
2022/07/30 01:09:43;;;;;;;6.50;4.90;;;;;;;17.10;72.95;98752.44;5000502;28;20311;-59
2022/07/30 01:12:11;;;;;;;7.03;4.80;;;;;;;17.04;73.21;98744.44;5001118;28;20807;-59
2022/07/30 01:14:39;;;;;;;8.50;4.83;;;;;;;17.01;73.22;98743.00;4973731;28;20240;-59
2022/07/30 01:17:06;;;;;;;7.37;5.10;;;;;;;17.02;73.51;98746.44;5000512;28;20220;-59
2022/07/30 01:19:49;;;;;;;6.50;5.07;;;;;;;16.96;73.95;98740.94;5002896;28;20225;-59
2022/07/30 01:22:24;;;;;;;7.47;4.67;;;;;;;16.93;74.14;98740.47;4999071;28;20238;-59
2022/07/30 01:25:01;;;;;;;6.53;4.67;;;;;;;16.96;74.08;98735.66;4984876;28;20282;-59
2022/07/30 01:27:33;;;;;;;6.13;4.30;;;;;;;16.96;74.05;98733.03;5001033;28;20212;-59
2022/07/30 01:30:03;;;;;;;6.03;5.43;;;;;;;16.91;73.97;98732.78;4972863;28;20225;-59
2022/07/30 01:32:33;;;;;;;6.90;4.87;;;;;;;16.89;74.43;98726.03;4983139;28;20223;-59
2022/07/30 01:35:03;;;;;;;6.03;4.50;;;;;;;16.87;74.28;98725.41;4979397;28;20208;-59
2022/07/30 01:37:31;;;;;;;6.50;4.93;;;;;;;16.82;74.37;98724.16;5006857;28;20251;-59
2022/07/30 01:39:59;;;;;;;8.00;4.77;;;;;;;16.85;73.98;98727.41;4997806;28;20562;-59
2022/07/30 01:42:28;;;;;;;6.90;4.37;;;;;;;16.82;74.32;98718.09;5012784;28;20214;-59
2022/07/30 01:44:57;;;;;;;6.10;5.50;;;;;;;16.74;73.93;98720.84;4981049;28;20231;-58
2022/07/30 01:47:25;;;;;;;8.27;5.17;;;;;;;16.71;74.69;98722.03;5006629;28;20257;-59
2022/07/30 01:49:53;;;;;;;7.03;4.77;;;;;;;16.64;74.78;98726.41;4992170;28;20632;-59
2022/07/30 01:52:22;;;;;;;6.60;4.40;;;;;;;16.57;74.55;98726.34;4981964;28;20231;-59
2022/07/30 01:54:52;;;;;;;6.57;4.73;;;;;;;16.51;75.03;98730.53;4992261;28;20201;-59
2022/07/30 01:57:21;;;;;;;7.43;4.73;;;;;;;16.49;75.46;98742.28;5004469;28;20294;-59
2022/07/30 01:59:51;;;;;;;8.70;5.17;;;;;;;16.43;75.25;98740.41;4986834;28;20726;-60
2022/07/30 02:02:19;;;;;;;5.87;4.87;;;;;;;16.40;75.97;98746.03;5005801;28;20249;-59
2022/07/30 02:04:47;;;;;;;6.40;5.53;;;;;;;16.33;75.90;98745.97;4989315;28;20216;-60
2022/07/30 02:07:18;;;;;;;11.27;5.17;;;;;;;16.28;76.31;98754.41;5002672;28;20548;-60
2022/07/30 02:09:58;;;;;;;8.30;5.00;;;;;;;16.23;76.79;98757.63;5009547;28;20287;-59
2022/07/30 02:12:29;;;;;;;8.07;5.30;;;;;;;16.21;76.56;98758.78;4985910;28;20612;-59
2022/07/30 02:15:09;;;;;;;7.77;5.40;;;;;;;16.19;76.89;98760.78;5001935;28;20188;-59
2022/07/30 02:17:40;;;;;;;8.70;5.07;;;;;;;16.18;77.37;98759.16;5002590;28;20274;-60
2022/07/30 02:20:10;;;;;;;7.27;5.13;;;;;;;16.15;77.72;98765.63;5003887;28;20206;-58
2022/07/30 02:22:42;;;;;;;10.17;5.40;;;;;;;16.14;77.83;98769.25;4986055;28;20194;-59
2022/07/30 02:25:10;;;;;;;6.63;5.37;;;;;;;16.09;77.10;98772.41;5005327;28;20195;-59
2022/07/30 02:27:40;;;;;;;7.40;5.07;;;;;;;16.01;77.31;98771.69;5005249;28;20215;-59
2022/07/30 02:30:11;;;;;;;7.57;4.93;;;;;;;15.92;77.84;98776.22;5021935;28;20214;-59
2022/07/30 02:32:41;;;;;;;7.37;5.20;;;;;;;15.96;78.22;98774.88;5005016;28;20202;-59
2022/07/30 02:35:15;;;;;;;8.00;5.43;;;;;;;15.88;78.56;98781.06;5004597;28;20199;-59
2022/07/30 02:37:49;;;;;;;5.63;4.87;;;;;;;15.88;78.54;98775.78;5007245;28;20201;-58
2022/07/30 02:40:19;;;;;;;7.13;5.53;;;;;;;15.82;78.64;98780.94;4990745;28;20257;-59
2022/07/30 02:42:49;;;;;;;8.63;5.10;;;;;;;15.76;79.05;98785.09;5006952;28;20678;-58
2022/07/30 02:45:23;;;;;;;5.67;4.93;;;;;;;15.73;78.81;98778.41;5019324;28;20196;-59
2022/07/30 02:47:56;;;;;;;8.83;5.10;;;;;;;15.76;79.95;98783.31;4988837;28;20609;-59
2022/07/30 02:50:24;;;;;;;7.07;5.20;;;;;;;15.71;79.40;98785.66;5004450;28;20230;-59
2022/07/30 02:52:53;;;;;;;7.50;4.90;;;;;;;15.65;79.41;98796.91;4990149;28;20685;-59
2022/07/30 02:55:22;;;;;;;8.87;5.47;;;;;;;15.60;79.61;98794.78;5004901;28;20221;-59
2022/07/30 02:57:51;;;;;;;8.10;5.43;;;;;;;15.65;79.90;98802.16;5007968;28;20187;-59
2022/07/30 03:00:21;;;;;;;6.87;5.40;;;;;;;15.56;79.83;98793.50;5004710;28;20190;-59
2022/07/30 03:02:51;;;;;;;7.83;5.40;;;;;;;15.53;80.40;98798.31;5007695;28;20253;-59
2022/07/30 03:05:19;;;;;;;7.97;5.70;;;;;;;15.48;80.18;98793.59;4990206;28;20645;-59
2022/07/30 03:07:47;;;;;;;6.40;4.70;;;;;;;15.50;81.01;98799.47;5005881;28;20204;-59
2022/07/30 03:10:16;;;;;;;12.17;5.93;;;;;;;15.53;80.62;98790.44;5001501;28;20215;-59
2022/07/30 03:12:46;;;;;;;9.40;5.40;;;;;;;15.45;80.92;98805.28;5006261;28;20193;-60
2022/07/30 03:15:14;;;;;;;7.47;5.47;;;;;;;15.44;81.15;98801.03;5003789;28;20731;-59
2022/07/30 03:17:43;;;;;;;7.17;5.07;;;;;;;15.38;81.08;98801.75;5005860;28;20190;-59
2022/07/30 03:20:13;;;;;;;10.20;5.63;;;;;;;15.37;80.91;98802.72;4988040;28;20218;-59
2022/07/30 03:22:42;;;;;;;5.93;5.33;;;;;;;15.34;81.11;98806.56;4990618;28;20197;-58
2022/07/30 03:25:11;;;;;;;7.87;5.43;;;;;;;15.35;81.39;98804.72;5005181;28;20200;-59
2022/07/30 03:27:39;;;;;;;6.77;5.27;;;;;;;15.41;81.21;98806.63;4988947;28;20194;-59
2022/07/30 03:30:08;;;;;;;7.57;5.33;;;;;;;15.37;81.30;98812.44;4987845;28;20219;-59
2022/07/30 03:32:35;;;;;;;6.87;5.10;;;;;;;15.31;81.06;98809.53;5006139;28;20284;-59
2022/07/30 03:35:06;;;;;;;8.33;5.20;;;;;;;15.24;81.37;98807.75;5007253;28;20199;-59
2022/07/30 03:37:36;;;;;;;6.43;5.17;;;;;;;15.26;81.86;98806.63;4989770;28;20227;-58
2022/07/30 03:40:05;;;;;;;6.17;4.80;;;;;;;15.18;81.48;98810.09;5004749;28;20306;-59
2022/07/30 03:42:34;;;;;;;6.23;5.53;;;;;;;15.14;81.74;98815.91;5005590;28;20187;-59
2022/07/30 03:45:04;;;;;;;10.03;5.70;;;;;;;15.11;82.35;98811.81;5006778;28;20667;-59
2022/07/30 03:47:32;;;;;;;8.00;5.20;;;;;;;15.14;82.49;98823.78;5003926;28;20202;-59
2022/07/30 03:50:01;;;;;;;8.87;5.30;;;;;;;15.08;83.16;98819.25;5017487;28;20241;-59
2022/07/30 03:52:33;;;;;;;7.70;5.83;;;;;;;15.09;82.55;98823.50;4990753;28;20265;-59
2022/07/30 03:55:02;;;;;;;6.20;4.90;;;;;;;15.01;83.45;98827.81;4986898;28;20642;-59
2022/07/30 03:57:38;;;;;;;10.93;6.10;;;;;;;15.01;82.80;98833.06;5005733;28;20195;-59
2022/07/30 04:00:07;;;;;;;8.93;5.07;;;;;;;15.00;83.52;98836.69;5003935;28;20214;-59
2022/07/30 04:02:43;;;;;;;8.83;5.87;;;;;;;15.03;83.28;98840.78;5005375;28;20189;-59
2022/07/30 04:05:28;;;;;;;5.73;5.17;;;;;;;14.99;83.56;98835.06;5007312;28;20211;-59
2022/07/30 04:08:00;;;;;;;7.17;4.93;;;;;;;15.00;83.64;98841.94;5005025;28;20248;-59
2022/07/30 04:10:29;;;;;;;7.83;5.47;;;;;;;14.96;83.48;98832.78;5007305;28;20231;-59
2022/07/30 04:12:59;;;;;;;9.90;5.80;;;;;;;15.03;83.48;98843.41;5003804;28;20203;-59
2022/07/30 04:15:26;;;;;;;7.23;5.70;;;;;;;15.07;83.56;98836.00;4987982;28;20203;-59
2022/07/30 04:17:59;;;;;;;12.00;5.80;;;;;;;15.10;83.60;98843.53;4988893;28;20222;-59
2022/07/30 04:20:31;;;;;;;8.23;5.83;;;;;;;15.15;83.32;98843.84;5006896;28;20648;-59
2022/07/30 04:22:58;;;;;;;9.27;5.63;;;;;;;15.14;82.98;98843.00;5004463;28;20194;-59
2022/07/30 04:25:27;;;;;;;11.37;5.93;;;;;;;15.20;82.90;98846.75;4990198;28;20549;-59
2022/07/30 04:27:55;;;;;;;8.27;5.60;;;;;;;15.22;83.12;98847.41;4989054;28;20733;-59
2022/07/30 04:30:22;;;;;;;8.13;5.30;;;;;;;15.19;82.78;98851.19;5004598;28;20211;-58
2022/07/30 04:32:49;;;;;;;6.20;5.57;;;;;;;15.20;82.76;98844.13;5004782;28;20196;-58
2022/07/30 04:35:42;;;;;;;14.87;5.60;;;;;;;15.25;83.01;98854.09;5005692;28;20202;-59
2022/07/30 04:38:17;;;;;;;7.87;5.80;;;;;;;15.30;82.75;98854.41;5004088;28;20214;-59
2022/07/30 04:41:04;;;;;;;6.57;5.47;;;;;;;15.31;82.47;98863.94;5004708;28;20662;-59
2022/07/30 04:43:56;;;;;;;7.80;5.83;;;;;;;15.34;82.64;98860.94;4980532;28;20670;-59
2022/07/30 04:46:25;;;;;;;7.27;5.30;;;;;;;15.33;82.55;98869.81;5000954;28;20201;-58
2022/07/30 04:48:53;;;;;;;7.23;5.73;;;;;;;15.35;82.95;98870.47;5001226;28;20705;-58
2022/07/30 04:51:25;;;;;;;8.17;5.50;;;;;;;15.40;82.86;98867.31;5000317;28;20210;-59
2022/07/30 04:53:54;;;;;;;6.90;5.33;;;;;;;15.42;82.51;98878.47;4999788;28;20189;-59
2022/07/30 04:56:22;;;;;;;6.33;5.63;;;;;;;15.44;82.32;98874.69;5002537;28;20593;-59
2022/07/30 04:58:51;;;;;;;5.97;5.40;;;;;;;15.49;82.21;98876.78;5001716;28;20571;-59
2022/07/30 05:01:23;;;;;;;8.07;5.13;;;;;;;15.54;82.96;98871.00;5000196;28;20190;-59
2022/07/30 05:03:52;;;;;;;10.27;5.53;;;;;;;15.59;82.81;98872.09;4983302;28;20282;-59
2022/07/30 05:06:20;;;;;;;11.03;5.67;;;;;;;15.54;82.31;98874.44;5000169;28;20194;-59
2022/07/30 05:08:48;;;;;;;6.87;5.63;;;;;;;15.55;82.24;98870.81;4988278;28;20271;-59
2022/07/30 05:11:15;;;;;;;9.57;5.03;;;;;;;15.59;82.52;98874.72;5001971;28;20221;-59
2022/07/30 05:13:47;;;;;;;6.23;5.40;;;;;;;15.67;82.80;98873.84;5016636;28;20691;-59
2022/07/30 05:16:18;;;;;;;7.77;5.50;;;;;;;15.69;82.71;98881.56;5003129;28;20200;-59
2022/07/30 05:18:45;;;;;;;8.67;5.30;;;;;;;15.75;82.03;98881.69;4983994;28;20208;-59
2022/07/30 05:21:12;;;;;;;8.03;5.27;;;;;;;15.83;81.79;98883.41;5000609;28;20645;-59
2022/07/30 05:23:48;;;;;;;5.73;4.80;;;;;;;15.84;81.61;98884.22;4983413;28;20222;-59
2022/07/30 05:26:30;;;;;;;7.33;5.70;;;;;;;15.89;81.13;98881.91;5001374;28;20199;-59
2022/07/30 05:28:59;;;;;;;5.70;5.07;;;;;;;15.92;81.25;98895.53;4999394;28;20212;-59
2022/07/30 05:31:33;;;;;;;8.87;5.50;;;;;;;15.94;82.17;98890.06;4982915;28;20690;-59
2022/07/30 05:34:02;;;;;;;9.40;5.77;;;;;;;15.97;82.18;98884.44;5000796;28;20578;-59
2022/07/30 05:36:36;;;;;;;6.67;5.20;;;;;;;16.01;81.76;98896.25;5002510;28;20194;-59
2022/07/30 05:39:03;;;;;;;8.67;5.10;;;;;;;16.04;81.28;98890.63;4999904;28;20229;-59
2022/07/30 05:41:49;;;;;;;8.07;5.20;;;;;;;16.13;80.90;98893.19;4984488;28;20706;-59
2022/07/30 05:44:22;;;;;;;6.70;4.97;;;;;;;16.21;80.85;98901.00;5001963;28;20195;-59
2022/07/30 05:46:49;;;;;;;6.80;5.00;;;;;;;16.28;80.33;98894.00;4999356;28;20554;-59
2022/07/30 05:49:16;;;;;;;7.23;4.97;;;;;;;16.35;79.22;98896.75;4998264;28;20206;-59
2022/07/30 05:51:43;;;;;;;6.43;4.73;;;;;;;16.40;78.76;98891.75;5000922;28;20207;-59
2022/07/30 05:54:10;;;;;;;6.80;5.03;;;;;;;16.45;78.76;98892.00;4999249;28;20195;-59
2022/07/30 05:56:48;;;;;;;7.90;4.83;;;;;;;16.53;78.69;98899.81;5000946;28;20203;-59
2022/07/30 05:59:30;;;;;;;8.37;4.50;;;;;;;16.64;78.20;98897.72;5001542;28;20277;-59
2022/07/30 06:02:08;;;;;;;5.17;4.67;;;;;;;16.74;78.01;98897.44;4988486;28;20695;-59
2022/07/30 06:04:53;;;;;;;8.93;5.00;;;;;;;16.92;76.20;98900.50;5006704;28;20193;-59
2022/07/30 06:07:21;;;;;;;6.23;4.37;;;;;;;17.05;75.76;98905.13;5004703;28;20278;-59
2022/07/30 06:09:48;;;;;;;7.07;4.60;;;;;;;17.19;75.07;98900.00;5008183;28;20333;-59
2022/07/30 06:12:15;;;;;;;5.00;4.03;;;;;;;17.36;75.11;98908.50;5005626;28;20571;-59
2022/07/30 06:14:43;;;;;;;6.63;4.67;;;;;;;17.55;74.06;98904.38;4987146;28;20665;-59
2022/07/30 06:17:15;;;;;;;7.03;4.60;;;;;;;17.72;73.28;98899.69;4986489;28;20198;-59
2022/07/30 06:20:02;;;;;;;5.60;4.43;;;;;;;17.91;72.20;98903.47;5003255;28;20214;-59
2022/07/30 06:22:33;;;;;;;5.13;3.97;;;;;;;18.10;71.36;98907.28;5005178;28;20612;-59
2022/07/30 06:25:07;;;;;;;4.73;3.83;;;;;;;18.28;69.91;98912.09;5008870;28;20287;-59
2022/07/30 06:27:35;;;;;;;5.60;3.60;;;;;;;18.44;69.06;98918.88;5007644;28;20204;-59
2022/07/30 06:30:05;;;;;;;9.83;4.20;;;;;;;18.67;67.60;98922.25;4989945;28;20252;-59
2022/07/30 06:32:33;;;;;;;10.30;4.23;;;;;;;18.86;67.61;98918.88;5007238;28;20224;-59
2022/07/30 06:35:01;;;;;;;10.37;4.83;;;;;;;19.04;65.96;98920.19;4990429;28;20243;-59
2022/07/30 06:37:28;;;;;;;7.13;3.80;;;;;;;19.23;65.56;98917.81;4990386;28;20226;-59
2022/07/30 06:39:55;;;;;;;7.40;3.57;;;;;;;19.41;64.51;98920.69;5007201;28;20209;-59
2022/07/30 06:42:57;;;;;;;5.83;3.90;;;;;;;19.64;63.74;98924.78;4990609;28;20208;-59
2022/07/30 06:45:44;;;;;;;4.67;3.70;;;;;;;19.84;63.61;98927.44;5007591;28;20683;-59
2022/07/30 06:48:30;;;;;;;6.57;3.50;;;;;;;20.02;61.64;98921.56;4990869;28;20633;-59
2022/07/30 06:50:59;;;;;;;6.37;3.53;;;;;;;20.21;61.76;98925.19;5020468;28;20530;-59
2022/07/30 06:53:26;;;;;;;7.60;3.70;;;;;;;20.35;62.07;98927.81;5004872;28;20588;-59
2022/07/30 06:56:12;;;;;;;6.83;3.97;;;;;;;20.49;61.07;98937.38;5005823;28;20904;-59
2022/07/30 06:58:48;;;;;;;15.37;4.30;;;;;;;20.64;59.03;98934.50;4991746;28;20692;-59
2022/07/30 07:01:35;;;;;;;6.17;4.10;;;;;;;20.82;58.76;98935.66;5008143;28;20197;-59
2022/07/30 07:04:02;;;;;;;6.27;4.63;;;;;;;21.02;57.42;98935.59;5007617;28;20191;-59
2022/07/30 07:06:29;;;;;;;6.63;4.50;;;;;;;21.15;55.74;98945.31;4991570;28;20205;-59
2022/07/30 07:08:57;;;;;;;8.50;4.40;;;;;;;21.36;54.85;98938.84;5003398;28;20223;-59
2022/07/30 07:11:32;;;;;;;6.23;3.93;;;;;;;21.42;54.32;98939.88;5005434;28;20830;-60
2022/07/30 07:14:04;;;;;;;5.00;4.30;;;;;;;21.54;54.65;98947.94;4989037;28;20215;-59
2022/07/30 07:16:35;;;;;;;6.77;3.87;;;;;;;21.66;55.04;98946.25;5004710;28;20194;-60
2022/07/30 07:19:23;;;;;;;5.80;4.23;;;;;;;21.77;54.48;98952.69;5004538;28;20227;-59
2022/07/30 07:21:50;;;;;;;4.57;3.87;;;;;;;21.85;54.27;98951.63;5006448;28;20200;-59
2022/07/30 07:24:16;;;;;;;8.37;3.83;;;;;;;21.92;54.55;98938.28;5004786;28;20199;-60
2022/07/30 07:27:07;;;;;;;6.33;4.50;;;;;;;22.06;53.84;98944.31;5004365;28;20198;-59
2022/07/30 07:29:34;;;;;;;9.30;4.70;;;;;;;22.07;54.90;98946.75;4985963;28;20218;-60
2022/07/30 07:32:04;;;;;;;5.43;4.43;;;;;;;22.17;54.62;98945.44;5018566;28;20801;-60
2022/07/30 07:34:32;;;;;;;8.43;4.60;;;;;;;22.21;53.54;98950.09;5003057;28;20205;-60
2022/07/30 07:37:00;;;;;;;6.80;3.90;;;;;;;22.40;53.65;98950.09;4985260;28;20196;-60
2022/07/30 07:39:26;;;;;;;4.90;3.87;;;;;;;22.60;53.78;98951.78;4985335;28;20297;-60
2022/07/30 07:41:53;;;;;;;6.57;4.00;;;;;;;22.63;53.53;98954.81;5002771;28;20214;-61
2022/07/30 07:44:23;;;;;;;6.40;4.33;;;;;;;22.55;53.09;98950.59;5001700;28;20196;-60
2022/07/30 07:46:50;;;;;;;8.70;4.87;;;;;;;22.59;52.60;98948.31;5001351;28;20194;-59
2022/07/30 07:49:18;;;;;;;7.60;4.53;;;;;;;22.66;52.16;98956.22;5004403;28;20206;-60
2022/07/30 07:51:51;;;;;;;12.43;4.43;;;;;;;22.69;51.37;98953.09;5002313;28;20212;-59
2022/07/30 07:54:20;;;;;;;7.13;4.90;;;;;;;22.77;51.37;98947.50;5000737;28;20209;-59
2022/07/30 07:56:50;;;;;;;9.47;4.93;;;;;;;22.76;51.90;98953.06;4984882;28;20199;-60
2022/07/30 07:59:17;;;;;;;7.27;4.63;;;;;;;22.84;50.71;98952.72;5003377;28;20216;-60
2022/07/30 08:01:45;;;;;;;6.57;4.60;;;;;;;22.82;50.76;98952.97;4991818;28;20214;-60
2022/07/30 08:04:12;;;;;;;9.67;4.73;;;;;;;22.82;50.88;98960.94;4993080;28;20232;-60
2022/07/30 08:07:12;;;;;;;7.57;4.60;;;;;;;22.85;50.74;98951.69;4995752;28;20723;-60
2022/07/30 08:09:58;;;;;;;11.17;4.53;;;;;;;22.86;50.98;98950.66;4975725;28;20240;-60
2022/07/30 08:12:33;;;;;;;5.60;4.20;;;;;;;22.98;50.17;98958.72;5005319;28;20254;-60
2022/07/30 08:15:19;;;;;;;8.63;4.43;;;;;;;23.05;48.97;98954.13;4990312;28;20255;-61
2022/07/30 08:17:47;;;;;;;6.50;3.87;;;;;;;23.12;49.57;98954.84;4988261;28;20247;-59
2022/07/30 08:20:21;;;;;;;8.87;4.20;;;;;;;23.08;50.32;98951.00;4988409;28;20216;-59
2022/07/30 08:22:49;;;;;;;8.90;4.50;;;;;;;23.17;48.88;98956.81;4997624;28;20221;-59
2022/07/30 08:25:16;;;;;;;7.47;4.50;;;;;;;23.18;48.41;98941.66;4968316;28;20799;-57
2022/07/30 08:27:44;;;;;;;5.40;4.57;;;;;;;23.16;47.94;98949.88;4983751;28;20312;-59
2022/07/30 08:30:12;;;;;;;7.67;4.30;;;;;;;23.18;48.52;98949.66;4967862;28;20223;-61
2022/07/30 08:32:39;;;;;;;7.87;4.23;;;;;;;23.12;49.25;98946.84;4986847;28;20243;-59
2022/07/30 08:35:07;;;;;;;7.33;4.13;;;;;;;23.22;47.78;98950.84;5002038;28;20216;-59
2022/07/30 08:37:34;;;;;;;6.40;3.63;;;;;;;23.22;48.15;98953.50;4968292;28;20271;-58
2022/07/30 08:40:04;;;;;;;7.53;3.90;;;;;;;23.28;47.77;98944.63;4968174;28;20244;-56
2022/07/30 08:42:34;;;;;;;9.20;4.07;;;;;;;23.31;46.46;98954.00;4989676;28;20240;-57
2022/07/30 08:45:01;;;;;;;8.87;3.87;;;;;;;23.32;45.24;98951.09;4968488;28;21014;-57
2022/07/30 08:47:32;;;;;;;7.53;3.60;;;;;;;23.25;46.02;98951.22;5006122;28;20229;-58
2022/07/30 08:50:20;;;;;;;7.70;3.63;;;;;;;23.34;46.88;98949.03;4974775;28;20226;-58
2022/07/30 08:53:07;;;;;;;8.00;3.93;;;;;;;23.50;47.21;98958.25;5006845;28;20334;-60
2022/07/30 08:55:36;;;;;;;9.57;3.50;;;;;;;23.49;44.16;98953.13;4989391;28;20307;-57
2022/07/30 08:58:23;;;;;;;6.27;3.77;;;;;;;23.59;45.42;98958.72;4991430;28;20321;-58
2022/07/30 09:00:50;;;;;;;8.33;3.70;;;;;;;23.66;46.04;98958.63;5000956;28;20223;-56
2022/07/30 09:03:17;;;;;;;6.53;3.43;;;;;;;23.71;46.13;98951.56;4988502;28;20233;-56
2022/07/30 09:05:45;;;;;;;6.33;3.83;;;;;;;23.65;44.52;98949.81;4989192;28;20311;-57
2022/07/30 09:08:12;;;;;;;4.57;3.60;;;;;;;23.76;45.19;98950.06;4975382;28;20245;-56
2022/07/30 09:10:43;;;;;;;6.70;3.20;;;;;;;23.84;42.34;98952.41;5010081;28;20219;-57
2022/07/30 09:13:23;;;;;;;5.77;3.70;;;;;;;24.03;43.44;98964.63;4973057;28;20214;-57
2022/07/30 09:15:51;;;;;;;3.53;3.23;;;;;;;23.98;42.75;98961.81;4978445;28;20224;-57
2022/07/30 09:18:27;;;;;;;5.73;3.10;;;;;;;23.96;43.12;98955.88;4974750;28;20224;-55
2022/07/30 09:20:55;;;;;;;10.70;3.20;;;;;;;24.05;40.74;98953.72;4998788;28;20275;-57
2022/07/30 09:23:23;;;;;;;5.03;2.43;;;;;;;24.15;41.81;98961.16;4986203;28;20232;-57
2022/07/30 09:26:10;;;;;;;6.20;3.00;;;;;;;24.19;41.77;98959.66;4992743;28;20228;-60
2022/07/30 09:28:46;;;;;;;7.20;3.10;;;;;;;24.29;41.40;98954.53;4994343;28;20222;-57
2022/07/30 09:31:32;;;;;;;7.03;2.57;;;;;;;24.35;40.58;98960.78;5005087;28;20212;-57
2022/07/30 09:34:33;;;;;;;7.90;2.90;;;;;;;24.43;40.05;98959.59;4997745;28;20197;-54
2022/07/30 09:37:16;;;;;;;5.67;2.97;;;;;;;24.53;40.20;98951.81;5010287;28;20189;-57
2022/07/30 09:40:22;;;;;;;4.60;2.60;;;;;;;24.50;41.75;98965.63;4968304;28;20204;-57
2022/07/30 09:43:10;;;;;;;5.93;2.77;;;;;;;24.70;40.10;98957.25;4969380;28;20334;-58
2022/07/30 09:45:50;;;;;;;8.83;2.97;;;;;;;24.67;39.69;98946.22;4978717;28;20203;-57
2022/07/30 09:48:21;;;;;;;7.57;2.67;;;;;;;24.86;39.11;98945.06;5009898;28;20525;-57
2022/07/30 09:50:48;;;;;;;5.73;2.70;;;;;;;24.86;39.97;98950.38;5009792;28;20190;-57
2022/07/30 09:53:15;;;;;;;10.77;2.57;;;;;;;24.72;38.61;98941.84;4992712;28;20301;-57
2022/07/30 09:55:43;;;;;;;5.50;2.73;;;;;;;24.89;38.37;98944.59;5009384;28;20285;-57
2022/07/30 09:58:12;;;;;;;4.27;2.30;;;;;;;24.87;37.51;98938.66;5009462;28;20702;-58
2022/07/30 10:00:40;;;;;;;3.83;2.10;;;;;;;25.03;37.07;98949.66;5009779;28;20208;-56
2022/07/30 10:03:17;;;;;;;5.90;2.20;;;;;;;25.21;36.84;98943.28;5009421;28;20193;-57
2022/07/30 10:06:02;;;;;;;5.97;2.80;;;;;;;25.05;37.58;98945.69;5011100;28;20196;-58
2022/07/30 10:08:42;;;;;;;5.30;2.70;;;;;;;24.96;38.46;98955.09;5011765;28;20220;-57
2022/07/30 10:11:12;;;;;;;5.13;2.70;;;;;;;25.06;37.93;98952.63;5029126;28;20728;-58
2022/07/30 10:13:41;;;;;;;5.40;2.60;;;;;;;25.29;38.78;98940.22;5012325;28;20214;-58
2022/07/30 10:16:09;;;;;;;4.20;2.70;;;;;;;25.49;37.85;98933.66;5009302;28;20682;-57
2022/07/30 10:18:37;;;;;;;6.13;3.13;;;;;;;25.47;37.96;98933.09;5009633;28;20298;-58
2022/07/30 10:21:39;;;;;;;7.33;2.73;;;;;;;25.69;38.15;98930.50;4991079;28;20202;-57
2022/07/30 10:24:18;;;;;;;9.03;2.50;;;;;;;25.81;37.73;98937.63;4991854;28;20195;-57
2022/07/30 10:27:09;;;;;;;3.77;2.17;;;;;;;25.28;38.15;98927.94;4954210;28;20207;-58
2022/07/30 10:29:44;;;;;;;5.30;2.50;;;;;;;25.16;38.72;98930.66;4989723;28;20244;-58
2022/07/30 10:32:11;;;;;;;3.67;2.30;;;;;;;25.33;37.75;98920.00;4990680;28;20282;-58
2022/07/30 10:34:39;;;;;;;4.90;2.10;;;;;;;25.43;36.46;98932.75;4990721;28;20260;-57
2022/07/30 10:37:07;;;;;;;4.40;2.10;;;;;;;25.28;35.13;98927.94;4989578;28;20187;-57
2022/07/30 10:39:37;;;;;;;3.83;1.90;;;;;;;25.41;34.95;98936.69;4990803;28;20206;-57
2022/07/30 10:42:27;;;;;;;3.00;1.80;;;;;;;25.53;34.78;98931.28;4991024;28;20684;-54
2022/07/30 10:45:11;;;;;;;3.93;2.00;;;;;;;25.60;35.74;98940.78;4990916;28;20239;-57
2022/07/30 10:47:39;;;;;;;2.97;2.10;;;;;;;25.66;34.53;98922.16;4994365;28;20221;-57
2022/07/30 10:50:08;;;;;;;3.00;2.07;;;;;;;25.74;35.09;98919.88;5003083;28;20197;-57
2022/07/30 10:52:55;;;;;;;5.17;2.17;;;;;;;26.04;34.71;98920.59;5013739;28;20239;-57
2022/07/30 10:55:25;;;;;;;3.17;2.27;;;;;;;26.06;35.37;98900.56;5013906;28;20191;-57
2022/07/30 10:58:00;;;;;;;4.68;2.22;;;;;;;26.03;35.78;98909.09;5013615;28;20195;-56
2022/07/30 11:00:30;;;;;;;4.30;2.20;;;;;;;25.99;35.85;98915.16;5013823;28;20196;-58
2022/07/30 11:03:22;;;;;;;3.40;2.03;;;;;;;26.29;35.21;98914.00;5013706;28;20183;-58
2022/07/30 11:05:51;;;;;;;5.27;2.30;;;;;;;26.49;35.01;98919.63;5012512;28;20294;-58
2022/07/30 11:08:33;;;;;;;4.70;2.53;;;;;;;26.63;35.08;98913.91;5012519;28;20213;-57
2022/07/30 11:11:00;;;;;;;7.03;2.50;;;;;;;26.48;35.57;98915.34;4994022;28;20205;-57
2022/07/30 11:13:50;;;;;;;7.03;2.33;;;;;;;26.57;36.13;98918.38;5007708;28;20217;-57
2022/07/30 11:16:19;;;;;;;4.50;2.10;;;;;;;26.65;36.00;98915.25;5014080;28;20512;-54
2022/07/30 11:19:06;;;;;;;4.20;2.20;;;;;;;26.90;33.63;98913.97;5013148;28;20695;-58
2022/07/30 11:21:33;;;;;;;10.47;2.30;;;;;;;26.67;34.32;98907.78;4993949;28;20190;-57
2022/07/30 11:24:00;;;;;;;3.97;2.27;;;;;;;26.87;34.58;98911.00;4994248;28;20194;-58
2022/07/30 11:26:50;;;;;;;4.07;1.75;;;;;;;27.34;33.39;98906.88;5012451;28;20631;-58
2022/07/30 11:29:37;;;;;;;4.20;2.10;;;;;;;26.85;35.08;98908.53;5013201;28;20213;-58
2022/07/30 11:32:25;;;;;;;3.85;2.20;;;;;;;27.13;35.18;98906.69;5006396;28;20209;-56
2022/07/30 11:34:52;;;;;;;2.60;1.90;;;;;;;27.39;33.63;98909.63;5013466;28;20208;-57
2022/07/30 11:37:19;;;;;;;5.18;2.15;;;;;;;27.20;33.21;98893.91;5012877;28;20204;-57
2022/07/30 11:40:09;;;;;;;3.97;2.30;;;;;;;27.00;33.92;98901.75;4998152;28;20693;-58
2022/07/30 11:42:37;;;;;;;4.93;2.00;;;;;;;26.53;35.24;98898.50;5000875;28;20234;-56
2022/07/30 11:45:25;;;;;;;7.63;2.20;;;;;;;26.68;34.96;98892.53;4994485;28;20230;-57
2022/07/30 11:47:56;;;;;;;3.37;2.20;;;;;;;26.78;34.76;98905.22;4994922;28;20239;-57
2022/07/30 11:50:25;;;;;;;3.35;1.90;;;;;;;26.70;35.17;98898.47;4989086;28;20243;-57
2022/07/30 11:52:53;;;;;;;3.57;1.97;;;;;;;26.98;34.99;98893.97;5008501;28;20229;-56
2022/07/30 11:55:25;;;;;;;7.73;2.20;;;;;;;27.54;34.63;98891.00;5007211;28;20572;-57